^^
Meteo Knjazevac Station Historical Data
Daily Summary for June 22, 2022 Units:  Both    English   Metric
Daily Weekly Monthly Yearly Custom
  High: Low: Average:
Temperature: 84.4 °F /  29.1 °C 63.3 °F /  17.4 °C 73.5 °F /  23.1 °C
Dew Point: 68.6 °F /  20.3 °C 61.3 °F /  16.3 °C 63.9 °F /  17.7 °C
Humidity: 99% 52% 74%
Wind Speed: 12mph /  19.3km/h - 3.6mph /  5.8km/h
Wind Gust: 21mph /  33.8km/h - -
Wind- - WSW
Pressure: 29.98 in /  1015.1 hPa 29.93 in /  1013.4 hPa -
Precipitation: 0.00 in /  0 mm    
Historical Graphs
 
 
Tabular Data for June 22, 2022
Time Temperature Dew Point Pressure Wind Wind Speed Wind Gust Humidity Rainfall Rate (Hourly) solar Conditions
00:00 66.2 °F /  19 °C 64.1 °F /  17.8 °C 29.96in /  1014.4hPa Calm   3mph /  4.8km/h 93% 0.00in /  0mm 0 W/m2
00:10 66 °F /  18.9 °C 63.9 °F /  17.7 °C 29.96in /  1014.4hPa Calm   2mph /  3.2km/h 93% 0.00in /  0mm 0 W/m2
00:20 65.7 °F /  18.7 °C 63.6 °F /  17.6 °C 29.96in /  1014.4hPa West 1mph /  1.6km/h 3mph /  4.8km/h 93% 0.00in /  0mm 0 W/m2
00:30 65.3 °F /  18.5 °C 63.2 °F /  17.3 °C 29.96in /  1014.4hPa NW 1mph /  1.6km/h 3mph /  4.8km/h 93% 0.00in /  0mm 0 W/m2
00:40 65.1 °F /  18.4 °C 63.3 °F /  17.4 °C 29.96in /  1014.4hPa WNW 1mph /  1.6km/h 3mph /  4.8km/h 94% 0.00in /  0mm 0 W/m2
00:50 64.9 °F /  18.3 °C 63.2 °F /  17.3 °C 29.96in /  1014.4hPa West 1mph /  1.6km/h 2mph /  3.2km/h 94% 0.00in /  0mm 0 W/m2
01:00 64.7 °F /  18.2 °C 63 °F /  17.2 °C 29.97in /  1014.8hPa WSW 2mph /  3.2km/h 2mph /  3.2km/h 94% 0.00in /  0mm 0 W/m2
01:10 64.6 °F /  18.1 °C 63.1 °F /  17.3 °C 29.96in /  1014.4hPa WNW 1mph /  1.6km/h 3mph /  4.8km/h 95% 0.00in /  0mm 0 W/m2
01:20 64.6 °F /  18.1 °C 63.1 °F /  17.3 °C 29.96in /  1014.4hPa SW 2mph /  3.2km/h 6mph /  9.7km/h 95% 0.00in /  0mm 0 W/m2
01:30 64.6 °F /  18.1 °C 63.1 °F /  17.3 °C 29.96in /  1014.4hPa SSW 1mph /  1.6km/h 5mph /  8km/h 95% 0.00in /  0mm 0 W/m2
01:40 64.6 °F /  18.1 °C 63.4 °F /  17.4 °C 29.96in /  1014.4hPa Calm   3mph /  4.8km/h 96% 0.00in /  0mm 0 W/m2
01:50 64.8 °F /  18.2 °C 63.6 °F /  17.6 °C 29.96in /  1014.4hPa NNW 1mph /  1.6km/h 5mph /  8km/h 96% 0.00in /  0mm 0 W/m2
02:00 64.6 °F /  18.1 °C 63.1 °F /  17.3 °C 29.96in /  1014.4hPa WNW 1mph /  1.6km/h 5mph /  8km/h 95% 0.00in /  0mm 0 W/m2
02:10 64.6 °F /  18.1 °C 63.4 °F /  17.4 °C 29.96in /  1014.4hPa North 1mph /  1.6km/h 2mph /  3.2km/h 96% 0.00in /  0mm 0 W/m2
02:20 64.8 °F /  18.2 °C 63.6 °F /  17.6 °C 29.96in /  1014.4hPa West 1mph /  1.6km/h 2mph /  3.2km/h 96% 0.00in /  0mm 0 W/m2
02:30 64.4 °F /  18 °C 62.9 °F /  17.2 °C 29.96in /  1014.4hPa WNW 1mph /  1.6km/h 2mph /  3.2km/h 95% 0.00in /  0mm 0 W/m2
02:40 64 °F /  17.8 °C 62.6 °F /  17 °C 29.96in /  1014.4hPa WSW 1mph /  1.6km/h 4mph /  6.4km/h 95% 0.00in /  0mm 0 W/m2
02:50 64 °F /  17.8 °C 62.9 °F /  17.2 °C 29.96in /  1014.4hPa WNW 1mph /  1.6km/h 3mph /  4.8km/h 96% 0.00in /  0mm 0 W/m2
03:00 63.9 °F /  17.7 °C 62.4 °F /  16.9 °C 29.96in /  1014.4hPa West 1mph /  1.6km/h 3mph /  4.8km/h 95% 0.00in /  0mm 0 W/m2
03:10 63.7 °F /  17.6 °C 62.5 °F /  16.9 °C 29.96in /  1014.4hPa WSW 2mph /  3.2km/h 5mph /  8km/h 96% 0.00in /  0mm 0 W/m2
03:20 63.5 °F /  17.5 °C 62.3 °F /  16.8 °C 29.96in /  1014.4hPa NNE 1mph /  1.6km/h 2mph /  3.2km/h 96% 0.00in /  0mm 0 W/m2
03:30 63.7 °F /  17.6 °C 62.5 °F /  16.9 °C 29.96in /  1014.4hPa ENE 1mph /  1.6km/h 2mph /  3.2km/h 96% 0.00in /  0mm 0 W/m2
03:40 63.6 °F /  17.6 °C 62.5 °F /  16.9 °C 29.96in /  1014.4hPa WSW 1mph /  1.6km/h 2mph /  3.2km/h 96% 0.00in /  0mm 0 W/m2
03:50 63.3 °F /  17.4 °C 62.2 °F /  16.8 °C 29.96in /  1014.4hPa West 1mph /  1.6km/h 4mph /  6.4km/h 96% 0.00in /  0mm 0 W/m2
04:00 63.5 °F /  17.5 °C 62.9 °F /  17.2 °C 29.95in /  1014.1hPa Calm   4mph /  6.4km/h 98% 0.00in /  0mm 0 W/m2
04:10 63.3 °F /  17.4 °C 62.2 °F /  16.8 °C 29.95in /  1014.1hPa WNW 1mph /  1.6km/h 3mph /  4.8km/h 96% 0.00in /  0mm 0 W/m2
04:20 63.3 °F /  17.4 °C 62.7 °F /  17.1 °C 29.95in /  1014.1hPa Calm   2mph /  3.2km/h 98% 0.00in /  0mm 0 W/m2
04:30 63.3 °F /  17.4 °C 62.7 °F /  17.1 °C 29.95in /  1014.1hPa Calm   4mph /  6.4km/h 98% 0.00in /  0mm 0 W/m2
04:40 63.3 °F /  17.4 °C 62.7 °F /  17.1 °C 29.95in /  1014.1hPa North 1mph /  1.6km/h 3mph /  4.8km/h 98% 0.00in /  0mm 0 W/m2
04:50 63.5 °F /  17.5 °C 63.2 °F /  17.3 °C 29.95in /  1014.1hPa ENE 5mph /  8km/h 7mph /  11.3km/h 99% 0.00in /  0mm 3 W/m2
05:00 63.7 °F /  17.6 °C 63.4 °F /  17.4 °C 29.95in /  1014.1hPa ENE 3mph /  4.8km/h 7mph /  11.3km/h 99% 0.00in /  0mm 7 W/m2
05:10 64 °F /  17.8 °C 63.8 °F /  17.7 °C 29.95in /  1014.1hPa ENE 3mph /  4.8km/h 8mph /  12.9km/h 99% 0.00in /  0mm 14 W/m2
05:20 64.2 °F /  17.9 °C 63.6 °F /  17.6 °C 29.95in /  1014.1hPa SE 1mph /  1.6km/h 5mph /  8km/h 98% 0.00in /  0mm 23 W/m2
05:30 64.1 °F /  17.8 °C 63.5 °F /  17.5 °C 29.95in /  1014.1hPa NNW 1mph /  1.6km/h 3mph /  4.8km/h 98% 0.00in /  0mm 35 W/m2
05:40 64.4 °F /  18 °C 63.8 °F /  17.7 °C 29.95in /  1014.1hPa NE 2mph /  3.2km/h 5mph /  8km/h 98% 0.00in /  0mm 47 W/m2
05:50 64.8 °F /  18.2 °C 64.2 °F /  17.9 °C 29.96in /  1014.4hPa East 2mph /  3.2km/h 4mph /  6.4km/h 98% 0.00in /  0mm 58 W/m2
06:00 65.1 °F /  18.4 °C 64.5 °F /  18.1 °C 29.96in /  1014.4hPa Calm   5mph /  8km/h 98% 0.00in /  0mm 69 W/m2
06:10 65.1 °F /  18.4 °C 64 °F /  17.8 °C 29.97in /  1014.8hPa Calm   2mph /  3.2km/h 96% 0.00in /  0mm 83 W/m2
06:20 64.9 °F /  18.3 °C 63.8 °F /  17.7 °C 29.97in /  1014.8hPa Calm   3mph /  4.8km/h 96% 0.00in /  0mm 96 W/m2
06:30 65.1 °F /  18.4 °C 64 °F /  17.8 °C 29.97in /  1014.8hPa WSW 1mph /  1.6km/h 2mph /  3.2km/h 96% 0.00in /  0mm 127 W/m2
06:40 65.3 °F /  18.5 °C 64.1 °F /  17.8 °C 29.97in /  1014.8hPa SW 1mph /  1.6km/h 3mph /  4.8km/h 96% 0.00in /  0mm 143 W/m2
06:50 65.7 °F /  18.7 °C 64.5 °F /  18.1 °C 29.97in /  1014.8hPa SSE 1mph /  1.6km/h 4mph /  6.4km/h 96% 0.00in /  0mm 175 W/m2
07:00 66.2 °F /  19 °C 65 °F /  18.3 °C 29.97in /  1014.8hPa SSW 1mph /  1.6km/h 2mph /  3.2km/h 96% 0.00in /  0mm 200 W/m2
07:10 66.7 °F /  19.3 °C 65.6 °F /  18.7 °C 29.97in /  1014.8hPa Calm   2mph /  3.2km/h 96% 0.00in /  0mm 243 W/m2
07:20 67.3 °F /  19.6 °C 66.2 °F /  19 °C 29.97in /  1014.8hPa West 2mph /  3.2km/h 7mph /  11.3km/h 96% 0.00in /  0mm 267 W/m2
07:30 68.2 °F /  20.1 °C 66.7 °F /  19.3 °C 29.97in /  1014.8hPa ESE 3mph /  4.8km/h 9mph /  14.5km/h 95% 0.00in /  0mm 302 W/m2
07:40 68.7 °F /  20.4 °C 66.9 °F /  19.4 °C 29.97in /  1014.8hPa South 1mph /  1.6km/h 6mph /  9.7km/h 94% 0.00in /  0mm 335 W/m2
07:50 69.3 °F /  20.7 °C 67.2 °F /  19.6 °C 29.97in /  1014.8hPa SSW 2mph /  3.2km/h 5mph /  8km/h 93% 0.00in /  0mm 365 W/m2
08:00 70 °F /  21.1 °C 67.9 °F /  19.9 °C 29.98in /  1015.1hPa WNW 2mph /  3.2km/h 5mph /  8km/h 93% 0.00in /  0mm 391 W/m2
08:10 70.6 °F /  21.4 °C 67.8 °F /  19.9 °C 29.98in /  1015.1hPa NW 2mph /  3.2km/h 5mph /  8km/h 91% 0.00in /  0mm 428 W/m2
08:20 71.6 °F /  22 °C 68.2 °F /  20.1 °C 29.98in /  1015.1hPa WSW 3mph /  4.8km/h 7mph /  11.3km/h 89% 0.00in /  0mm 244 W/m2
08:30 72.6 °F /  22.6 °C 67.8 °F /  19.9 °C 29.97in /  1014.8hPa SW 3mph /  4.8km/h 6mph /  9.7km/h 85% 0.00in /  0mm 476 W/m2
08:40 73.6 °F /  23.1 °C 68.5 °F /  20.3 °C 29.97in /  1014.8hPa SW 3mph /  4.8km/h 9mph /  14.5km/h 84% 0.00in /  0mm 541 W/m2
08:50 74.7 °F /  23.7 °C 68.1 °F /  20.1 °C 29.97in /  1014.8hPa SSE 2mph /  3.2km/h 7mph /  11.3km/h 80% 0.00in /  0mm 587 W/m2
09:00 75.7 °F /  24.3 °C 68 °F /  20 °C 29.96in /  1014.4hPa SSE 2mph /  3.2km/h 6mph /  9.7km/h 77% 0.00in /  0mm 665 W/m2
09:10 76.5 °F /  24.7 °C 67.6 °F /  19.8 °C 29.96in /  1014.4hPa SSW 5mph /  8km/h 7mph /  11.3km/h 74% 0.00in /  0mm 582 W/m2
09:20 77.2 °F /  25.1 °C 68.6 °F /  20.3 °C 29.97in /  1014.8hPa WSW 3mph /  4.8km/h 7mph /  11.3km/h 75% 0.00in /  0mm 656 W/m2
09:30 77.2 °F /  25.1 °C 68.6 °F /  20.3 °C 29.97in /  1014.8hPa West 3mph /  4.8km/h 5mph /  8km/h 75% 0.00in /  0mm 656 W/m2
09:40 77.2 °F /  25.1 °C 68.6 °F /  20.3 °C 29.97in /  1014.8hPa West 3mph /  4.8km/h 5mph /  8km/h 75% 0.00in /  0mm 656 W/m2
09:50 77.2 °F /  25.1 °C 68.6 °F /  20.3 °C 29.97in /  1014.8hPa West 3mph /  4.8km/h 5mph /  8km/h 75% 0.00in /  0mm 656 W/m2
10:00 75.9 °F /  24.4 °C 64.2 °F /  17.9 °C 29.98in /  1015.1hPa West 6mph /  9.7km/h 11mph /  17.7km/h 67% 0.00in /  0mm 221 W/m2
10:10 75.5 °F /  24.2 °C 62.9 °F /  17.2 °C 29.97in /  1014.8hPa West 6mph /  9.7km/h 12mph /  19.3km/h 65% 0.00in /  0mm 193 W/m2
10:20 75 °F /  23.9 °C 62 °F /  16.7 °C 29.96in /  1014.4hPa WSW 6mph /  9.7km/h 13mph /  20.9km/h 64% 0.00in /  0mm 187 W/m2
10:30 74.8 °F /  23.8 °C 61.8 °F /  16.6 °C 29.97in /  1014.8hPa West 6mph /  9.7km/h 12mph /  19.3km/h 64% 0.00in /  0mm 170 W/m2
10:40 74.8 °F /  23.8 °C 63.1 °F /  17.3 °C 29.97in /  1014.8hPa West 3mph /  4.8km/h 10mph /  16.1km/h 67% 0.00in /  0mm 315 W/m2
10:50 75 °F /  23.9 °C 63.3 °F /  17.4 °C 29.98in /  1015.1hPa WNW 3mph /  4.8km/h 8mph /  12.9km/h 67% 0.00in /  0mm 332 W/m2
11:00 76.1 °F /  24.5 °C 63.9 °F /  17.7 °C 29.98in /  1015.1hPa WNW 5mph /  8km/h 12mph /  19.3km/h 66% 0.00in /  0mm 337 W/m2
11:10 76.3 °F /  24.6 °C 63.2 °F /  17.3 °C 29.98in /  1015.1hPa WNW 6mph /  9.7km/h 13mph /  20.9km/h 64% 0.00in /  0mm 589 W/m2
11:20 76.5 °F /  24.7 °C 63.4 °F /  17.4 °C 29.98in /  1015.1hPa WNW 7mph /  11.3km/h 14mph /  22.5km/h 64% 0.00in /  0mm 516 W/m2
11:30 76.3 °F /  24.6 °C 63.2 °F /  17.3 °C 29.98in /  1015.1hPa WNW 7mph /  11.3km/h 11mph /  17.7km/h 64% 0.00in /  0mm 151 W/m2
11:40 75.7 °F /  24.3 °C 63.1 °F /  17.3 °C 29.98in /  1015.1hPa West 5mph /  8km/h 9mph /  14.5km/h 65% 0.00in /  0mm 210 W/m2
11:50 75.5 °F /  24.2 °C 62.5 °F /  16.9 °C 29.98in /  1015.1hPa WNW 8mph /  12.9km/h 13mph /  20.9km/h 64% 0.00in /  0mm 415 W/m2
12:00 76.3 °F /  24.6 °C 62.3 °F /  16.8 °C 29.98in /  1015.1hPa West 6mph /  9.7km/h 15mph /  24.1km/h 62% 0.00in /  0mm 578 W/m2
12:10 76.6 °F /  24.8 °C 61.7 °F /  16.5 °C 29.98in /  1015.1hPa West 7mph /  11.3km/h 16mph /  25.7km/h 60% 0.00in /  0mm 608 W/m2
12:20 77.2 °F /  25.1 °C 61.7 °F /  16.5 °C 29.98in /  1015.1hPa West 10mph /  16.1km/h 16mph /  25.7km/h 59% 0.00in /  0mm 585 W/m2
12:30 77.7 °F /  25.4 °C 62.7 °F /  17.1 °C 29.97in /  1014.8hPa West 8mph /  12.9km/h 15mph /  24.1km/h 60% 0.00in /  0mm 787 W/m2
12:40 78.5 °F /  25.8 °C 63 °F /  17.2 °C 29.97in /  1014.8hPa West 5mph /  8km/h 16mph /  25.7km/h 59% 0.00in /  0mm 644 W/m2
12:50 79.5 °F /  26.4 °C 61.4 °F /  16.3 °C 29.96in /  1014.4hPa WSW 9mph /  14.5km/h 15mph /  24.1km/h 54% 0.00in /  0mm 921 W/m2
13:00 79.5 °F /  26.4 °C 61.4 °F /  16.3 °C 29.96in /  1014.4hPa WSW 12mph /  19.3km/h 20mph /  32.2km/h 54% 0.00in /  0mm 419 W/m2
13:10 78.8 °F /  26 °C 61.3 °F /  16.3 °C 29.97in /  1014.8hPa West 9mph /  14.5km/h 17mph /  27.4km/h 55% 0.00in /  0mm 797 W/m2
13:20 79.8 °F /  26.6 °C 63.2 °F /  17.3 °C 29.96in /  1014.4hPa West 3mph /  4.8km/h 13mph /  20.9km/h 57% 0.00in /  0mm 960 W/m2
13:30 80.9 °F /  27.2 °C 63.7 °F /  17.6 °C 29.96in /  1014.4hPa West 6mph /  9.7km/h 13mph /  20.9km/h 56% 0.00in /  0mm 952 W/m2
13:40 80.8 °F /  27.1 °C 63.6 °F /  17.6 °C 29.96in /  1014.4hPa West 7mph /  11.3km/h 15mph /  24.1km/h 56% 0.00in /  0mm 786 W/m2
13:50 80.5 °F /  26.9 °C 63.9 °F /  17.7 °C 29.96in /  1014.4hPa West 8mph /  12.9km/h 15mph /  24.1km/h 57% 0.00in /  0mm 554 W/m2
14:00 80.8 °F /  27.1 °C 64.1 °F /  17.8 °C 29.96in /  1014.4hPa WNW 5mph /  8km/h 16mph /  25.7km/h 57% 0.00in /  0mm 472 W/m2
14:10 80.6 °F /  27 °C 64 °F /  17.8 °C 29.96in /  1014.4hPa West 6mph /  9.7km/h 14mph /  22.5km/h 57% 0.00in /  0mm 378 W/m2
14:20 80.7 °F /  27.1 °C 64 °F /  17.8 °C 29.96in /  1014.4hPa West 7mph /  11.3km/h 13mph /  20.9km/h 57% 0.00in /  0mm 437 W/m2
14:30 81 °F /  27.2 °C 64.9 °F /  18.3 °C 29.96in /  1014.4hPa West 6mph /  9.7km/h 14mph /  22.5km/h 58% 0.00in /  0mm 873 W/m2
14:40 81.9 °F /  27.7 °C 64.6 °F /  18.1 °C 29.96in /  1014.4hPa West 6mph /  9.7km/h 13mph /  20.9km/h 56% 0.00in /  0mm 856 W/m2
14:50 82.4 °F /  28 °C 64.6 °F /  18.1 °C 29.96in /  1014.4hPa WNW 8mph /  12.9km/h 14mph /  22.5km/h 55% 0.00in /  0mm 681 W/m2
15:00 82.6 °F /  28.1 °C 64.8 °F /  18.2 °C 29.96in /  1014.4hPa West 7mph /  11.3km/h 14mph /  22.5km/h 55% 0.00in /  0mm 816 W/m2
15:10 82.9 °F /  28.3 °C 64.6 °F /  18.1 °C 29.96in /  1014.4hPa West 5mph /  8km/h 14mph /  22.5km/h 54% 0.00in /  0mm 795 W/m2
15:20 83.7 °F /  28.7 °C 65.8 °F /  18.8 °C 29.95in /  1014.1hPa West 7mph /  11.3km/h 14mph /  22.5km/h 55% 0.00in /  0mm 773 W/m2
15:30 83.8 °F /  28.8 °C 64.9 °F /  18.3 °C 29.95in /  1014.1hPa West 9mph /  14.5km/h 14mph /  22.5km/h 53% 0.00in /  0mm 749 W/m2
15:40 84 °F /  28.9 °C 65 °F /  18.3 °C 29.95in /  1014.1hPa West 9mph /  14.5km/h 13mph /  20.9km/h 53% 0.00in /  0mm 725 W/m2
15:50 84 °F /  28.9 °C 65 °F /  18.3 °C 29.95in /  1014.1hPa WSW 9mph /  14.5km/h 14mph /  22.5km/h 53% 0.00in /  0mm 700 W/m2
16:00 84 °F /  28.9 °C 65 °F /  18.3 °C 29.95in /  1014.1hPa West 7mph /  11.3km/h 16mph /  25.7km/h 53% 0.01in /  0.25mm 673 W/m2
16:10 84.4 °F /  29.1 °C 65.4 °F /  18.6 °C 29.94in /  1013.8hPa WSW 7mph /  11.3km/h 21mph /  33.8km/h 53% 0.00in /  0mm 647 W/m2
16:20 84 °F /  28.9 °C 65 °F /  18.3 °C 29.94in /  1013.8hPa West 8mph /  12.9km/h 21mph /  33.8km/h 53% 0.00in /  0mm 609 W/m2
16:30 84 °F /  28.9 °C 65 °F /  18.3 °C 29.93in /  1013.4hPa West 8mph /  12.9km/h 20mph /  32.2km/h 53% 0.00in /  0mm 583 W/m2
16:40 83.9 °F /  28.8 °C 64.4 °F /  18 °C 29.94in /  1013.8hPa West 12mph /  19.3km/h 20mph /  32.2km/h 52% 0.00in /  0mm 548 W/m2
16:50 83.8 °F /  28.8 °C 64.9 °F /  18.3 °C 29.94in /  1013.8hPa West 9mph /  14.5km/h 20mph /  32.2km/h 53% 0.00in /  0mm 521 W/m2
17:00 83.8 °F /  28.8 °C 64.9 °F /  18.3 °C 29.94in /  1013.8hPa West 8mph /  12.9km/h 16mph /  25.7km/h 53% 0.01in /  0.25mm 503 W/m2
17:10 83.8 °F /  28.8 °C 64.9 °F /  18.3 °C 29.94in /  1013.8hPa West 8mph /  12.9km/h 16mph /  25.7km/h 53% 0.00in /  0mm 467 W/m2
17:20 83.7 °F /  28.7 °C 64.7 °F /  18.2 °C 29.93in /  1013.4hPa West 8mph /  12.9km/h 17mph /  27.4km/h 53% 0.00in /  0mm 423 W/m2
17:30 83.8 °F /  28.8 °C 65.4 °F /  18.6 °C 29.94in /  1013.8hPa West 7mph /  11.3km/h 13mph /  20.9km/h 54% 0.00in /  0mm 369 W/m2
17:40 83.5 °F /  28.6 °C 65.1 °F /  18.4 °C 29.93in /  1013.4hPa West 7mph /  11.3km/h 14mph /  22.5km/h 54% 0.00in /  0mm 337 W/m2
17:50 83.4 °F /  28.6 °C 65 °F /  18.3 °C 29.94in /  1013.8hPa West 7mph /  11.3km/h 13mph /  20.9km/h 54% 0.00in /  0mm 291 W/m2
18:00 83.1 °F /  28.4 °C 64.8 °F /  18.2 °C 29.94in /  1013.8hPa West 6mph /  9.7km/h 13mph /  20.9km/h 54% 0.00in /  0mm 272 W/m2
18:10 82.7 °F /  28.2 °C 64.3 °F /  17.9 °C 29.94in /  1013.8hPa West 8mph /  12.9km/h 12mph /  19.3km/h 54% 0.00in /  0mm 162 W/m2
18:20 82.1 °F /  27.8 °C 64.4 °F /  18 °C 29.94in /  1013.8hPa West 5mph /  8km/h 13mph /  20.9km/h 55% 0.00in /  0mm 243 W/m2
18:30 82.2 °F /  27.9 °C 64.4 °F /  18 °C 29.94in /  1013.8hPa West 6mph /  9.7km/h 9mph /  14.5km/h 55% 0.00in /  0mm 218 W/m2
18:40 82 °F /  27.8 °C 64.3 °F /  17.9 °C 29.94in /  1013.8hPa WSW 6mph /  9.7km/h 12mph /  19.3km/h 55% 0.00in /  0mm 105 W/m2
18:50 81 °F /  27.2 °C 63.4 °F /  17.4 °C 29.94in /  1013.8hPa West 5mph /  8km/h 12mph /  19.3km/h 55% 0.00in /  0mm 48 W/m2
19:00 80.2 °F /  26.8 °C 63.6 °F /  17.6 °C 29.94in /  1013.8hPa West 6mph /  9.7km/h 12mph /  19.3km/h 57% 0.00in /  0mm 45 W/m2
19:10 79.5 °F /  26.4 °C 62.9 °F /  17.2 °C 29.95in /  1014.1hPa West 6mph /  9.7km/h 10mph /  16.1km/h 57% 0.00in /  0mm 48 W/m2
19:20 79.2 °F /  26.2 °C 63.1 °F /  17.3 °C 29.95in /  1014.1hPa WSW 3mph /  4.8km/h 7mph /  11.3km/h 58% 0.00in /  0mm 41 W/m2
19:30 78.6 °F /  25.9 °C 63.1 °F /  17.3 °C 29.95in /  1014.1hPa WSW 3mph /  4.8km/h 7mph /  11.3km/h 59% 0.00in /  0mm 22 W/m2
19:40 78.1 °F /  25.6 °C 63.1 °F /  17.3 °C 29.95in /  1014.1hPa SW 3mph /  4.8km/h 7mph /  11.3km/h 60% 0.00in /  0mm 13 W/m2
19:50 77.6 °F /  25.3 °C 62.6 °F /  17 °C 29.95in /  1014.1hPa WSW 2mph /  3.2km/h 6mph /  9.7km/h 60% 0.00in /  0mm 7 W/m2
20:00 77.4 °F /  25.2 °C 62.4 °F /  16.9 °C 29.95in /  1014.1hPa WSW 1mph /  1.6km/h 5mph /  8km/h 60% 0.00in /  0mm 4 W/m2
20:10 77 °F /  25 °C 63 °F /  17.2 °C 29.96in /  1014.4hPa SSW 1mph /  1.6km/h 3mph /  4.8km/h 62% 0.00in /  0mm 2 W/m2
20:20 76.8 °F /  24.9 °C 61.9 °F /  16.6 °C 29.96in /  1014.4hPa SW 2mph /  3.2km/h 5mph /  8km/h 60% 0.00in /  0mm 0 W/m2
20:30 76.5 °F /  24.7 °C 62.5 °F /  16.9 °C 29.96in /  1014.4hPa ESE 1mph /  1.6km/h 3mph /  4.8km/h 62% 0.00in /  0mm 0 W/m2
20:40 76.3 °F /  24.6 °C 61.4 °F /  16.3 °C 29.96in /  1014.4hPa NNW 2mph /  3.2km/h 4mph /  6.4km/h 60% 0.00in /  0mm 0 W/m2
20:50 75.9 °F /  24.4 °C 62 °F /  16.7 °C 29.96in /  1014.4hPa NNW 1mph /  1.6km/h 2mph /  3.2km/h 62% 0.00in /  0mm 0 W/m2
21:00 75.4 °F /  24.1 °C 62.8 °F /  17.1 °C 29.97in /  1014.8hPa SE 2mph /  3.2km/h 3mph /  4.8km/h 65% 0.00in /  0mm 0 W/m2
21:10 74.8 °F /  23.8 °C 63.1 °F /  17.3 °C 29.96in /  1014.4hPa SSE 1mph /  1.6km/h 3mph /  4.8km/h 67% 0.00in /  0mm 0 W/m2
21:20 74.3 °F /  23.5 °C 63.1 °F /  17.3 °C 29.97in /  1014.8hPa WSW 1mph /  1.6km/h 3mph /  4.8km/h 68% 0.00in /  0mm 0 W/m2
21:30 73.9 °F /  23.3 °C 62.7 °F /  17.1 °C 29.96in /  1014.4hPa Calm   3mph /  4.8km/h 68% 0.00in /  0mm 0 W/m2
21:40 73.6 °F /  23.1 °C 62.8 °F /  17.1 °C 29.96in /  1014.4hPa ENE 1mph /  1.6km/h 6mph /  9.7km/h 69% 0.00in /  0mm 0 W/m2
21:50 73.6 °F /  23.1 °C 63.2 °F /  17.3 °C 29.97in /  1014.8hPa SW 2mph /  3.2km/h 4mph /  6.4km/h 70% 0.00in /  0mm 0 W/m2
22:00 73.1 °F /  22.8 °C 62.7 °F /  17.1 °C 29.97in /  1014.8hPa West 2mph /  3.2km/h 3mph /  4.8km/h 70% 0.00in /  0mm 0 W/m2
22:10 72.9 °F /  22.7 °C 62.1 °F /  16.7 °C 29.97in /  1014.8hPa West 1mph /  1.6km/h 4mph /  6.4km/h 69% 0.00in /  0mm 0 W/m2
22:20 72.6 °F /  22.6 °C 63.1 °F /  17.3 °C 29.97in /  1014.8hPa WSW 2mph /  3.2km/h 4mph /  6.4km/h 72% 0.00in /  0mm 0 W/m2
22:30 72.2 °F /  22.3 °C 62.7 °F /  17.1 °C 29.97in /  1014.8hPa WSW 1mph /  1.6km/h 2mph /  3.2km/h 72% 0.00in /  0mm 0 W/m2
22:40 71.9 °F /  22.2 °C 62.7 °F /  17.1 °C 29.97in /  1014.8hPa WSW 2mph /  3.2km/h 3mph /  4.8km/h 73% 0.00in /  0mm 0 W/m2
22:50 71.5 °F /  21.9 °C 62.8 °F /  17.1 °C 29.97in /  1014.8hPa SSW 1mph /  1.6km/h 5mph /  8km/h 74% 0.00in /  0mm 0 W/m2
23:00 71.2 °F /  21.8 °C 62.1 °F /  16.7 °C 29.97in /  1014.8hPa Calm   5mph /  8km/h 73% 0.00in /  0mm 0 W/m2
23:10 71.1 °F /  21.7 °C 62.4 °F /  16.9 °C 29.97in /  1014.8hPa NNE 1mph /  1.6km/h 2mph /  3.2km/h 74% 0.00in /  0mm 0 W/m2
23:20 70.9 °F /  21.6 °C 62.2 °F /  16.8 °C 29.97in /  1014.8hPa South 1mph /  1.6km/h 8mph /  12.9km/h 74% 0.00in /  0mm 0 W/m2
23:30 70.9 °F /  21.6 °C 62.2 °F /  16.8 °C 29.97in /  1014.8hPa SE 2mph /  3.2km/h 6mph /  9.7km/h 74% 0.00in /  0mm 0 W/m2
23:40 70.9 °F /  21.6 °C 62.2 °F /  16.8 °C 29.97in /  1014.8hPa SSE 2mph /  3.2km/h 5mph /  8km/h 74% 0.00in /  0mm 0 W/m2
23:50 70.5 °F /  21.4 °C 62.2 °F /  16.8 °C 29.97in /  1014.8hPa Calm   4mph /  6.4km/h 75% 0.00in /  0mm 0 W/m2
Knjazevac, Serbia
Compliments of Weather Underground - 2 mb